Time;durP1;ratioP1;P1;durP2;ratioP2;P2;SDS_P1;SDS_P2;PMS_P1;PMS_P2;Temp;Humidity;BMP_temperature;BMP_pressure;BME280_temperature;BME280_humidity;BME280_pressure;Samples;Min_cycle;Max_cycle;Signal;HPM_P1;HPM_P2
2022/02/24 00:01:25;;;;;;;29.60;18.70;;;;;;;1.21;95.30;96283.34;6269761;22;20035;-61
2022/02/24 00:03:51;;;;;;;23.52;15.75;;;;;;;1.11;96.48;96284.69;6269336;22;20004;-62
2022/02/24 00:06:18;;;;;;;24.65;16.73;;;;;;;1.07;96.82;96286.56;6269987;22;20007;-61
2022/02/24 00:08:44;;;;;;;23.25;16.17;;;;;;;1.17;96.87;96284.41;6269898;22;20008;-61
2022/02/24 00:11:09;;;;;;;19.65;14.60;;;;;;;1.13;96.12;96286.28;6269684;22;20400;-61
2022/02/24 00:13:34;;;;;;;17.95;14.32;;;;;;;1.05;96.76;96290.97;6269838;22;20004;-61
2022/02/24 00:16:00;;;;;;;22.45;14.68;;;;;;;1.02;96.78;96285.09;6269954;22;20325;-61
2022/02/24 00:18:25;;;;;;;23.10;15.77;;;;;;;0.98;96.24;96284.38;6269757;22;20043;-61
2022/02/24 00:20:50;;;;;;;19.98;15.05;;;;;;;0.98;96.87;96289.56;6269891;22;20004;-61
2022/02/24 00:23:16;;;;;;;20.65;13.60;;;;;;;0.98;96.71;96281.78;6269894;22;20320;-61
2022/02/24 00:25:41;;;;;;;16.48;13.38;;;;;;;0.97;96.65;96280.94;6269329;22;20007;-61
2022/02/24 00:28:07;;;;;;;16.60;12.48;;;;;;;0.95;96.58;96279.31;6269473;22;20013;-61
2022/02/24 00:30:32;;;;;;;19.00;14.48;;;;;;;1.00;96.56;96285.16;6269720;22;20320;-61
2022/02/24 00:32:57;;;;;;;16.65;13.65;;;;;;;0.96;96.36;96279.28;6270028;22;20007;-61
2022/02/24 00:35:23;;;;;;;18.35;12.60;;;;;;;0.93;95.95;96284.59;6269792;22;20079;-61
2022/02/24 00:37:48;;;;;;;20.52;13.50;;;;;;;0.92;96.70;96271.69;6270074;22;20335;-61
2022/02/24 00:40:13;;;;;;;15.18;11.68;;;;;;;0.85;96.52;96274.56;6269074;22;20003;-61
2022/02/24 00:42:39;;;;;;;15.40;12.02;;;;;;;0.80;97.57;96260.09;6269933;22;20007;-61
2022/02/24 00:45:05;;;;;;;19.50;14.02;;;;;;;0.77;96.65;96255.88;6269868;22;20000;-61
2022/02/24 00:47:31;;;;;;;15.75;12.55;;;;;;;0.77;97.05;96253.28;6269930;22;20448;-61
2022/02/24 00:49:56;;;;;;;16.05;11.77;;;;;;;0.79;97.16;96248.91;6269831;22;20098;-61
2022/02/24 00:52:22;;;;;;;13.15;10.77;;;;;;;0.74;96.58;96252.63;6269536;22;20064;-61
2022/02/24 00:54:48;;;;;;;14.05;9.73;;;;;;;0.71;96.64;96246.66;6270030;22;20003;-61
2022/02/24 00:57:14;;;;;;;11.18;7.43;;;;;;;0.77;96.17;96245.53;6269803;22;19995;-61
2022/02/24 00:59:39;;;;;;;9.68;7.78;;;;;;;0.80;96.31;96242.81;6269747;22;20011;-61
2022/02/24 01:02:04;;;;;;;8.32;7.20;;;;;;;0.74;96.48;96237.88;6269904;22;20000;-62
2022/02/24 01:04:30;;;;;;;11.38;7.55;;;;;;;0.73;96.92;96231.03;6242692;22;19999;-62
2022/02/24 01:06:55;;;;;;;7.25;6.55;;;;;;;0.71;96.36;96225.06;6269213;22;20000;-61
2022/02/24 01:09:21;;;;;;;8.80;6.40;;;;;;;0.63;96.69;96225.41;6269652;22;20406;-61
2022/02/24 01:11:46;;;;;;;8.07;7.28;;;;;;;0.55;97.47;96219.72;6269860;22;20008;-61
2022/02/24 01:14:11;;;;;;;9.27;6.85;;;;;;;0.55;98.22;96220.59;6269715;22;20059;-61
2022/02/24 01:16:37;;;;;;;6.15;5.35;;;;;;;0.62;97.46;96215.94;6269520;22;20087;-61
2022/02/24 01:19:02;;;;;;;6.03;5.32;;;;;;;0.63;98.22;96216.81;6269690;22;20000;-61
2022/02/24 01:21:28;;;;;;;6.50;5.18;;;;;;;0.62;97.63;96215.13;6269570;22;20004;-61
2022/02/24 01:23:53;;;;;;;9.18;6.07;;;;;;;0.60;97.57;96211.75;6269853;22;20083;-61
2022/02/24 01:26:19;;;;;;;8.57;5.18;;;;;;;0.60;97.60;96219.53;6269169;22;20015;-61
2022/02/24 01:28:44;;;;;;;6.43;4.60;;;;;;;0.63;98.06;96209.84;6269818;22;20518;-61
2022/02/24 01:31:09;;;;;;;6.47;4.70;;;;;;;0.64;98.21;96218.47;6269616;22;20000;-61
2022/02/24 01:33:35;;;;;;;5.78;4.40;;;;;;;0.68;97.40;96217.44;6269493;22;20029;-61
2022/02/24 01:36:00;;;;;;;5.95;4.47;;;;;;;0.65;96.86;96222.75;6269565;22;20512;-61
2022/02/24 01:38:26;;;;;;;4.97;4.47;;;;;;;0.61;97.80;96221.22;6269359;22;20010;-61
2022/02/24 01:40:51;;;;;;;5.10;4.70;;;;;;;0.64;98.12;96218.47;6269703;22;20011;-61
2022/02/24 01:43:16;;;;;;;7.40;5.18;;;;;;;0.65;97.40;96217.56;6269448;22;20406;-61
2022/02/24 01:45:42;;;;;;;5.85;4.60;;;;;;;0.66;97.48;96211.47;6269411;22;20419;-61
2022/02/24 01:48:07;;;;;;;5.97;4.55;;;;;;;0.59;98.17;96215.25;6269506;22;20080;-61
2022/02/24 01:50:33;;;;;;;4.13;3.83;;;;;;;0.53;98.37;96209.41;6268884;22;20083;-61
2022/02/24 01:52:58;;;;;;;5.43;4.05;;;;;;;0.52;98.17;96205.13;6268663;22;20056;-61
2022/02/24 01:55:24;;;;;;;4.75;3.92;;;;;;;0.54;97.76;96205.09;6269339;22;20007;-61
2022/02/24 01:57:49;;;;;;;4.50;4.10;;;;;;;0.55;97.73;96206.78;6269543;22;20055;-61
2022/02/24 02:00:15;;;;;;;4.35;3.95;;;;;;;0.53;97.68;96203.41;6269333;22;20015;-61
2022/02/24 02:02:41;;;;;;;4.68;3.90;;;;;;;0.50;97.62;96196.59;6269736;22;20003;-61
2022/02/24 02:05:07;;;;;;;7.00;5.68;;;;;;;0.44;97.79;96194.28;6269446;22;20003;-61
2022/02/24 02:07:33;;;;;;;7.00;5.78;;;;;;;0.41;99.08;96190.06;6269025;22;20004;-61
2022/02/24 02:09:59;;;;;;;5.85;5.35;;;;;;;0.47;98.29;96191.56;6269428;22;20004;-61
2022/02/24 02:12:24;;;;;;;5.63;5.07;;;;;;;0.50;97.38;96186.22;6269132;22;20007;-61
2022/02/24 02:14:49;;;;;;;7.07;5.07;;;;;;;0.49;97.38;96175.97;6269142;22;20011;-61
2022/02/24 02:17:15;;;;;;;4.50;4.10;;;;;;;0.45;97.80;96175.25;6269129;22;20416;-61
2022/02/24 02:19:40;;;;;;;4.53;4.10;;;;;;;0.41;97.07;96171.94;6242479;22;20439;-61
2022/02/24 02:22:06;;;;;;;5.05;4.30;;;;;;;0.35;98.19;96166.22;6242095;22;20027;-61
2022/02/24 02:24:31;;;;;;;5.93;4.35;;;;;;;0.46;97.59;96153.59;6269195;22;20008;-61
2022/02/24 02:26:56;;;;;;;4.63;4.22;;;;;;;0.42;97.45;96152.06;6269036;22;20069;-61
2022/02/24 02:29:22;;;;;;;4.85;3.88;;;;;;;0.52;96.77;96149.91;6268872;22;20428;-61
2022/02/24 02:31:48;;;;;;;9.40;5.93;;;;;;;0.58;96.82;96157.41;6268742;22;20137;-61
2022/02/24 02:34:16;;;;;;;10.23;6.00;;;;;;;0.54;97.98;96146.31;6268917;22;20011;-61
2022/02/24 02:36:45;;;;;;;9.13;6.38;;;;;;;0.52;98.15;96131.78;6269340;22;20604;-61
2022/02/24 02:39:11;;;;;;;14.95;9.55;;;;;;;0.56;98.19;96134.16;6268842;22;20466;-61
2022/02/24 02:41:39;;;;;;;20.15;11.65;;;;;;;0.57;98.66;96122.03;6241793;22;20407;-60
2022/02/24 02:44:06;;;;;;;18.70;10.55;;;;;;;0.57;98.74;96115.09;6269138;22;20079;-61
2022/02/24 02:46:32;;;;;;;19.98;9.60;;;;;;;0.55;98.23;96101.38;6268927;22;20075;-61
2022/02/24 02:48:57;;;;;;;16.85;8.85;;;;;;;0.54;98.12;96110.03;6269122;22;20474;-61
2022/02/24 02:51:22;;;;;;;16.23;8.43;;;;;;;0.53;98.58;96102.34;6268609;22;20047;-61
2022/02/24 02:53:48;;;;;;;15.95;9.25;;;;;;;0.51;97.68;96105.00;6268882;22;20035;-60
2022/02/24 02:56:14;;;;;;;15.05;9.32;;;;;;;0.47;98.40;96094.88;6268788;22;20350;-61
2022/02/24 02:58:40;;;;;;;15.20;9.68;;;;;;;0.45;98.31;96097.50;6268523;22;20026;-61
2022/02/24 03:01:06;;;;;;;18.88;9.85;;;;;;;0.45;98.73;96100.09;6268392;22;20006;-61
2022/02/24 03:03:31;;;;;;;16.25;9.63;;;;;;;0.45;96.98;96110.47;6269260;22;20003;-61
2022/02/24 03:05:57;;;;;;;14.88;9.07;;;;;;;0.43;98.31;96096.75;6270405;22;20074;-61
2022/02/24 03:08:23;;;;;;;15.75;9.95;;;;;;;0.39;97.95;96096.03;6270312;22;20045;-61
2022/02/24 03:10:49;;;;;;;18.92;8.85;;;;;;;0.39;98.26;96095.22;6269702;22;20003;-61
2022/02/24 03:13:15;;;;;;;18.73;8.70;;;;;;;0.38;97.99;96089.19;6269765;22;20007;-61
2022/02/24 03:15:42;;;;;;;15.90;7.78;;;;;;;0.39;98.22;96103.00;6270161;22;20003;-62
2022/02/24 03:18:08;;;;;;;18.13;9.43;;;;;;;0.38;98.08;96086.59;6270350;22;20055;-61
2022/02/24 03:20:33;;;;;;;14.45;8.45;;;;;;;0.31;98.85;96084.34;6270199;22;20346;-62
2022/02/24 03:23:02;;;;;;;12.02;8.43;;;;;;;0.27;99.33;96075.88;6269935;22;20414;-61
2022/02/24 03:25:28;;;;;;;12.90;7.60;;;;;;;0.30;98.55;96077.47;6270132;22;19999;-61
2022/02/24 03:27:54;;;;;;;13.57;7.25;;;;;;;0.37;98.64;96071.13;6242809;22;20024;-61
2022/02/24 03:30:20;;;;;;;10.27;7.82;;;;;;;0.36;97.89;96065.09;6270284;22;19999;-61
2022/02/24 03:32:46;;;;;;;9.73;6.00;;;;;;;0.31;98.64;96055.84;6270010;22;20008;-62
2022/02/24 03:35:12;;;;;;;7.57;6.72;;;;;;;0.22;98.98;96052.78;6270123;22;20343;-61
2022/02/24 03:37:38;;;;;;;10.98;9.68;;;;;;;0.22;99.60;96051.91;6270162;22;20024;-61
2022/02/24 03:40:04;;;;;;;9.65;6.40;;;;;;;0.22;99.46;96055.38;6270042;22;20011;-61
2022/02/24 03:42:30;;;;;;;12.00;7.07;;;;;;;0.16;99.18;96050.47;6269619;22;20007;-61
2022/02/24 03:44:56;;;;;;;7.30;4.82;;;;;;;0.19;98.19;96047.75;6270094;22;20075;-61
2022/02/24 03:47:22;;;;;;;8.40;4.88;;;;;;;0.17;98.71;96036.63;6269705;22;20080;-61
2022/02/24 03:49:49;;;;;;;5.82;4.47;;;;;;;0.20;99.30;96033.88;6270390;22;20343;-61
2022/02/24 03:52:18;;;;;;;5.15;4.65;;;;;;;0.12;99.80;96033.41;6269907;22;20014;-60
2022/02/24 03:54:44;;;;;;;5.85;5.25;;;;;;;0.08;100.00;96030.09;6270000;22;20004;-61
2022/02/24 03:57:10;;;;;;;7.03;5.53;;;;;;;0.11;100.00;96018.75;6269550;22;20048;-61
2022/02/24 03:59:37;;;;;;;9.05;5.15;;;;;;;0.16;100.00;96010.78;6269813;22;20004;-61
2022/02/24 04:02:04;;;;;;;6.57;4.93;;;;;;;0.37;98.58;96019.31;6270270;22;20075;-61
2022/02/24 04:04:30;;;;;;;6.72;4.50;;;;;;;0.31;100.00;96015.25;6270230;22;20572;-61
2022/02/24 04:06:55;;;;;;;6.75;5.00;;;;;;;0.27;100.00;96009.38;6270053;22;20011;-61
2022/02/24 04:09:21;;;;;;;7.97;5.32;;;;;;;0.26;100.00;96007.69;6269990;22;20021;-61
2022/02/24 04:11:46;;;;;;;8.52;5.38;;;;;;;0.26;100.00;96012.88;6242366;22;20007;-60
2022/02/24 04:14:12;;;;;;;8.23;5.93;;;;;;;0.31;100.00;96009.22;6270162;22;20074;-61
2022/02/24 04:16:37;;;;;;;8.55;5.82;;;;;;;0.34;100.00;96009.09;6269403;22;20076;-61
2022/02/24 04:19:02;;;;;;;6.45;4.97;;;;;;;0.39;99.90;96012.31;6269841;22;20000;-61
2022/02/24 04:21:28;;;;;;;4.85;4.45;;;;;;;0.44;99.01;96015.53;6270341;22;20004;-61
2022/02/24 04:23:53;;;;;;;5.40;4.90;;;;;;;0.40;100.00;96014.81;6269644;22;20095;-61
2022/02/24 04:26:19;;;;;;;9.80;4.78;;;;;;;0.38;99.49;96010.63;6269809;22;20102;-61
2022/02/24 04:28:44;;;;;;;4.85;4.35;;;;;;;0.57;99.20;96008.00;6269838;22;20000;-61
2022/02/24 04:31:09;;;;;;;5.28;4.47;;;;;;;0.56;98.34;96017.56;6270085;22;20033;-60
2022/02/24 04:33:35;;;;;;;6.03;4.30;;;;;;;0.57;98.44;96010.59;6269925;22;20010;-61
2022/02/24 04:36:00;;;;;;;4.80;4.30;;;;;;;0.55;98.64;96010.69;6269794;22;20011;-61
2022/02/24 04:38:26;;;;;;;5.68;4.45;;;;;;;0.50;99.72;95999.69;6269351;22;20082;-61
2022/02/24 04:40:51;;;;;;;5.35;4.80;;;;;;;0.52;99.27;96000.44;6269841;22;20432;-61
2022/02/24 04:43:16;;;;;;;7.80;5.22;;;;;;;0.72;98.08;95996.06;6269798;22;20026;-61
2022/02/24 04:45:42;;;;;;;7.40;4.55;;;;;;;0.76;97.89;95986.41;6269681;22;20056;-61
2022/02/24 04:48:07;;;;;;;4.63;3.88;;;;;;;0.67;99.30;95985.94;6270045;22;20444;-61
2022/02/24 04:50:34;;;;;;;5.85;4.63;;;;;;;0.61;98.55;95980.22;6269564;22;20431;-61
2022/02/24 04:52:59;;;;;;;6.78;4.25;;;;;;;0.59;98.66;95972.50;6269831;22;20039;-61
2022/02/24 04:55:25;;;;;;;8.80;5.18;;;;;;;0.60;99.33;95971.59;6269927;22;20388;-61
2022/02/24 04:57:50;;;;;;;7.35;5.20;;;;;;;0.60;99.17;95975.94;6269864;22;20339;-61
2022/02/24 05:00:16;;;;;;;4.95;3.45;;;;;;;0.92;97.73;95973.53;6269950;22;20007;-61
2022/02/24 05:02:41;;;;;;;4.60;4.15;;;;;;;0.77;98.68;95969.94;6269549;22;20004;-61
2022/02/24 05:05:07;;;;;;;6.07;3.97;;;;;;;0.70;98.71;95974.56;6269750;22;20080;-61
2022/02/24 05:07:33;;;;;;;9.95;4.93;;;;;;;0.63;99.22;95979.22;6269733;22;20003;-61
2022/02/24 05:10:00;;;;;;;10.10;5.20;;;;;;;0.62;99.07;95980.13;6269662;22;20363;-61
2022/02/24 05:12:25;;;;;;;6.50;4.75;;;;;;;0.63;99.53;95973.19;6269635;22;20012;-61
2022/02/24 05:14:50;;;;;;;11.88;6.28;;;;;;;0.62;99.23;95980.13;6269707;22;20075;-61
2022/02/24 05:17:16;;;;;;;14.73;5.45;;;;;;;0.66;98.63;95979.09;6269286;22;20000;-61
2022/02/24 05:19:41;;;;;;;6.40;5.45;;;;;;;0.65;99.43;95972.19;6269520;22;20454;-61
2022/02/24 05:22:07;;;;;;;9.77;5.60;;;;;;;0.59;99.12;95974.28;6269156;22;20056;-62
2022/02/24 05:24:32;;;;;;;9.52;7.35;;;;;;;0.52;98.92;95978.91;6269053;22;20028;-61
2022/02/24 05:26:57;;;;;;;9.80;6.07;;;;;;;0.45;99.18;95982.69;6268737;22;20016;-61
2022/02/24 05:29:23;;;;;;;6.22;5.57;;;;;;;0.47;98.58;95991.25;6269432;22;20087;-61
2022/02/24 05:31:48;;;;;;;7.10;5.90;;;;;;;0.48;99.09;95988.56;6269447;22;20000;-61
2022/02/24 05:34:14;;;;;;;9.40;6.30;;;;;;;0.66;97.89;95991.19;6269318;22;20436;-61
2022/02/24 05:36:39;;;;;;;7.38;6.68;;;;;;;0.54;99.55;95988.25;6269680;22;20075;-61
2022/02/24 05:39:05;;;;;;;12.32;6.65;;;;;;;0.54;99.72;95987.44;6269709;22;20084;-61
2022/02/24 05:41:30;;;;;;;7.10;6.20;;;;;;;0.48;100.00;95991.16;6269655;22;20044;-61
2022/02/24 05:43:56;;;;;;;12.25;7.32;;;;;;;0.51;100.00;95995.34;6269385;22;20007;-61
2022/02/24 05:46:21;;;;;;;13.48;7.47;;;;;;;0.47;100.00;95999.84;6269337;22;20012;-61
2022/02/24 05:48:46;;;;;;;11.15;8.57;;;;;;;0.67;99.27;96006.69;6269418;22;20007;-60
2022/02/24 05:51:13;;;;;;;12.98;10.45;;;;;;;0.85;98.23;96001.50;6269300;22;20074;-61
2022/02/24 05:53:38;;;;;;;16.58;12.27;;;;;;;0.71;98.13;95997.84;6268721;22;20460;-61
2022/02/24 05:56:04;;;;;;;20.25;11.20;;;;;;;0.60;99.54;96002.69;6269237;22;20031;-61
2022/02/24 05:58:30;;;;;;;12.23;9.02;;;;;;;0.51;99.84;96005.72;6241675;22;20049;-61
2022/02/24 06:00:56;;;;;;;7.80;6.60;;;;;;;0.49;99.81;96002.38;6269011;22;20000;-61
2022/02/24 06:03:21;;;;;;;12.50;7.70;;;;;;;0.48;99.58;96011.06;6269054;22;20442;-61
2022/02/24 06:05:47;;;;;;;12.73;8.00;;;;;;;0.46;100.00;96005.94;6269141;22;20004;-60
2022/02/24 06:08:12;;;;;;;10.23;6.90;;;;;;;0.43;99.94;96000.91;6269146;22;20003;-61
2022/02/24 06:10:37;;;;;;;11.25;6.88;;;;;;;0.43;99.77;96008.66;6269269;22;20058;-61
2022/02/24 06:13:03;;;;;;;15.95;8.35;;;;;;;0.41;99.27;96016.50;6268399;22;20007;-61
2022/02/24 06:15:28;;;;;;;9.15;7.72;;;;;;;0.39;99.04;96001.97;6266717;22;20011;-61
2022/02/24 06:17:53;;;;;;;8.70;7.50;;;;;;;0.36;99.69;96012.47;6267530;22;20704;-61
2022/02/24 06:20:19;;;;;;;12.35;7.85;;;;;;;0.33;99.45;96023.78;6268029;22;20083;-62
2022/02/24 06:22:47;;;;;;;12.15;7.95;;;;;;;0.28;100.00;96036.94;6268460;22;20007;-61
2022/02/24 06:25:12;;;;;;;8.73;6.43;;;;;;;0.30;99.70;96031.72;6269277;22;20031;-61
2022/02/24 06:27:38;;;;;;;7.30;6.07;;;;;;;0.28;99.84;96036.94;6269225;22;20019;-61
2022/02/24 06:30:05;;;;;;;7.18;6.18;;;;;;;0.26;100.00;96027.59;6268261;22;20051;-62
2022/02/24 06:32:30;;;;;;;8.27;5.88;;;;;;;0.26;99.39;96025.00;6268747;22;20067;-61
2022/02/24 06:34:56;;;;;;;6.75;5.63;;;;;;;0.27;99.69;96037.03;6268930;22;20008;-61
2022/02/24 06:37:21;;;;;;;16.35;12.65;;;;;;;0.26;99.89;96043.94;6269116;22;20185;-61
2022/02/24 06:39:47;;;;;;;14.05;7.57;;;;;;;0.29;99.31;96045.56;6269933;22;20003;-61
2022/02/24 06:42:13;;;;;;;8.98;5.43;;;;;;;0.32;99.17;96052.34;6270174;22;20010;-61
2022/02/24 06:44:38;;;;;;;5.47;4.80;;;;;;;0.26;100.00;96040.53;6270199;22;20006;-61
2022/02/24 06:47:04;;;;;;;6.68;5.07;;;;;;;0.27;100.00;96044.81;6270205;22;20450;-61
2022/02/24 06:49:29;;;;;;;8.27;5.00;;;;;;;0.27;100.00;96042.22;6269365;22;20034;-61
2022/02/24 06:51:57;;;;;;;11.30;4.75;;;;;;;0.30;100.00;96047.25;6268613;22;20004;-62
2022/02/24 06:54:23;;;;;;;6.57;5.55;;;;;;;0.31;100.00;96051.53;6268908;22;20007;-61
2022/02/24 06:56:49;;;;;;;7.82;4.97;;;;;;;0.37;100.00;96064.19;6268935;22;20027;-61
2022/02/24 06:59:14;;;;;;;14.32;8.43;;;;;;;0.46;100.00;96064.69;6269060;22;20467;-61
2022/02/24 07:01:39;;;;;;;17.83;12.93;;;;;;;0.56;100.00;96063.34;6242760;22;20046;-61
2022/02/24 07:04:05;;;;;;;12.27;9.77;;;;;;;0.69;100.00;96067.06;6270012;22;20000;-61
2022/02/24 07:06:30;;;;;;;13.52;9.88;;;;;;;0.74;100.00;96068.59;6271107;22;20003;-61
2022/02/24 07:08:56;;;;;;;14.02;8.48;;;;;;;0.79;100.00;96067.47;6270449;22;20431;-62
2022/02/24 07:11:23;;;;;;;9.60;8.32;;;;;;;0.91;100.00;96076.41;6270014;22;20079;-61
2022/02/24 07:13:48;;;;;;;13.98;8.90;;;;;;;1.02;99.78;96080.22;6269322;22;20008;-61
2022/02/24 07:16:14;;;;;;;26.35;15.20;;;;;;;1.18;99.42;96085.50;6241771;22;20000;-61
2022/02/24 07:18:39;;;;;;;39.25;17.85;;;;;;;1.29;99.00;96091.03;6270196;22;20634;-61
2022/02/24 07:21:05;;;;;;;24.35;14.57;;;;;;;1.38;98.32;96100.94;6269444;22;20506;-61
2022/02/24 07:23:30;;;;;;;17.40;12.45;;;;;;;1.42;98.84;96101.63;6270208;22;20477;-48
2022/02/24 07:25:58;;;;;;;20.88;13.55;;;;;;;1.48;97.56;96098.72;6268347;22;20034;-53
2022/02/24 07:28:23;;;;;;;22.58;17.00;;;;;;;1.62;97.22;96107.59;6269209;22;20043;-50
2022/02/24 07:30:49;;;;;;;24.08;17.73;;;;;;;1.75;96.85;96098.25;6270120;22;20008;-51
2022/02/24 07:33:15;;;;;;;27.70;21.67;;;;;;;1.79;96.86;96109.34;6269506;22;20013;-52
2022/02/24 07:35:41;;;;;;;35.20;24.70;;;;;;;1.80;97.56;96109.28;6270189;22;20004;-50
2022/02/24 07:38:07;;;;;;;29.42;20.70;;;;;;;1.88;97.15;96101.09;6269956;22;20010;-55
2022/02/24 07:40:32;;;;;;;21.67;16.17;;;;;;;1.98;96.47;96094.50;6269991;22;20006;-54
2022/02/24 07:42:57;;;;;;;17.90;13.85;;;;;;;2.11;94.63;96091.28;6269286;22;20016;-48
2022/02/24 07:45:23;;;;;;;23.90;13.85;;;;;;;2.18;95.12;96095.22;6269424;22;20002;-53
2022/02/24 07:47:48;;;;;;;33.30;20.83;;;;;;;2.22;94.39;96094.13;6269324;22;20090;-51
2022/02/24 07:50:14;;;;;;;31.88;19.58;;;;;;;2.39;94.74;96076.81;6269835;22;19996;-54
2022/02/24 07:52:41;;;;;;;22.17;13.20;;;;;;;2.37;95.09;96069.09;6270043;22;20404;-51
2022/02/24 07:55:07;;;;;;;14.30;10.90;;;;;;;2.44;95.29;96061.81;6270108;22;20007;-54
2022/02/24 07:57:33;;;;;;;15.30;10.98;;;;;;;2.49;95.03;96067.59;6269909;22;20511;-53
2022/02/24 07:59:58;;;;;;;13.63;11.50;;;;;;;2.60;95.36;96079.19;6268692;22;20008;-50
2022/02/24 08:02:24;;;;;;;12.18;10.48;;;;;;;2.69;93.56;96082.13;6268612;22;20016;-52
2022/02/24 08:04:49;;;;;;;14.02;10.43;;;;;;;2.82;92.87;96079.69;6269105;22;20007;-51
2022/02/24 08:07:14;;;;;;;17.05;12.48;;;;;;;2.98;92.69;96079.66;6268472;22;20060;-54
2022/02/24 08:09:40;;;;;;;16.20;13.70;;;;;;;3.07;93.06;96070.50;6268515;22;20023;-51
2022/02/24 08:14:49;;;;;;;23.23;18.30;;;;;;;3.39;90.93;96067.84;6268673;22;20011;-54
2022/02/24 08:17:14;;;;;;;26.05;18.20;;;;;;;3.56;91.56;96073.84;6268803;22;20000;-54
2022/02/24 08:19:42;;;;;;;23.27;17.38;;;;;;;3.71;91.25;96075.56;6268655;22;20004;-55
2022/02/24 08:22:07;;;;;;;22.05;16.60;;;;;;;3.99;90.61;96067.88;6268545;22;20343;-54
2022/02/24 08:24:33;;;;;;;21.73;19.13;;;;;;;4.23;89.22;96065.53;6268719;22;20007;-52
2022/02/24 08:26:58;;;;;;;53.70;33.80;;;;;;;4.51;88.50;96061.22;6268445;22;20023;-53
2022/02/24 08:29:23;;;;;;;46.45;29.85;;;;;;;4.82;87.23;96064.53;6268186;22;20004;-51
2022/02/24 08:31:49;;;;;;;44.15;28.17;;;;;;;5.24;85.79;96061.84;6268899;22;20492;-53
2022/02/24 08:34:14;;;;;;;38.78;23.80;;;;;;;5.48;84.77;96061.19;6268551;22;20424;-55
2022/02/24 08:36:40;;;;;;;36.92;21.13;;;;;;;5.88;82.47;96061.13;6268439;22;20388;-54
2022/02/24 08:39:05;;;;;;;27.75;20.67;;;;;;;6.19;82.11;96060.84;6268560;22;20004;-54
2022/02/24 08:41:35;;;;;;;22.60;16.48;;;;;;;6.59;80.74;96073.78;6268856;22;20015;-51
2022/02/24 08:44:01;;;;;;;25.27;14.40;;;;;;;6.89;79.12;96069.09;6268808;22;20439;-51
2022/02/24 08:46:26;;;;;;;19.35;14.68;;;;;;;7.20;77.08;96076.53;6268694;22;20011;-55
2022/02/24 08:48:52;;;;;;;5.80;5.13;;;;;;;7.31;74.55;96076.56;6268973;22;20495;-52
2022/02/24 08:51:17;;;;;;;3.85;3.45;;;;;;;7.03;75.42;96082.00;6241427;22;20381;-53
2022/02/24 08:53:43;;;;;;;3.00;2.80;;;;;;;6.78;74.40;96079.47;6268142;22;20157;-55
2022/02/24 08:56:08;;;;;;;5.88;4.40;;;;;;;6.67;75.58;96077.63;6269129;22;20021;-55
2022/02/24 08:58:34;;;;;;;6.82;5.13;;;;;;;6.52;76.15;96084.78;6268670;22;19999;-56
2022/02/24 09:00:59;;;;;;;6.68;6.07;;;;;;;6.50;75.75;96082.25;6268214;22;20008;-54
2022/02/24 09:03:25;;;;;;;9.43;5.53;;;;;;;6.65;74.26;96076.91;6268392;22;20082;-56
2022/02/24 09:05:50;;;;;;;6.72;4.72;;;;;;;6.77;75.19;96078.66;6268204;22;20440;-53
2022/02/24 09:08:15;;;;;;;6.32;3.72;;;;;;;7.07;73.00;96071.31;6268307;22;20461;-55
2022/02/24 09:10:41;;;;;;;3.75;2.85;;;;;;;7.37;71.36;96073.50;6269872;22;20292;-54
2022/02/24 09:13:08;;;;;;;3.85;3.40;;;;;;;7.68;68.80;96076.47;6269375;22;20007;-53
2022/02/24 09:15:35;;;;;;;6.50;2.72;;;;;;;7.96;67.51;96066.53;6269514;22;20075;-55
2022/02/24 09:18:01;;;;;;;3.10;2.55;;;;;;;8.13;66.43;96064.41;6269632;22;20335;-56
2022/02/24 09:20:29;;;;;;;6.35;3.50;;;;;;;8.19;67.17;96056.06;6269482;22;20014;-56
2022/02/24 09:22:55;;;;;;;8.90;6.03;;;;;;;8.51;64.83;96050.16;6267585;22;20004;-55
2022/02/24 09:25:21;;;;;;;8.15;5.63;;;;;;;8.66;65.23;96055.13;6269041;22;20437;-55
2022/02/24 09:27:46;;;;;;;6.28;4.45;;;;;;;8.64;65.12;96070.16;6268843;22;20023;-53
2022/02/24 09:30:12;;;;;;;7.78;4.10;;;;;;;8.59;65.00;96076.63;6269428;22;20031;-56
2022/02/24 09:32:37;;;;;;;7.10;4.45;;;;;;;8.85;64.55;96075.53;6268985;22;20027;-54
2022/02/24 09:35:04;;;;;;;4.10;3.60;;;;;;;9.21;62.52;96080.59;6268629;22;20011;-54
2022/02/24 09:37:34;;;;;;;5.68;3.75;;;;;;;9.26;62.19;96076.59;6269068;22;20439;-55
2022/02/24 09:40:01;;;;;;;4.50;2.90;;;;;;;9.29;62.71;96084.25;6269254;22;20000;-54
2022/02/24 09:42:27;;;;;;;4.97;3.10;;;;;;;9.41;62.68;96087.69;6269214;22;20012;-54
2022/02/24 09:44:53;;;;;;;3.30;2.92;;;;;;;9.48;59.58;96092.44;6269126;22;20443;-54
2022/02/24 09:47:19;;;;;;;6.68;3.70;;;;;;;9.77;60.72;96097.09;6268828;22;20007;-56
2022/02/24 09:49:47;;;;;;;5.60;3.53;;;;;;;9.86;57.68;96097.16;6269382;22;20036;-56
2022/02/24 09:52:12;;;;;;;6.30;3.50;;;;;;;9.99;57.58;96096.16;6269004;22;20007;-56
2022/02/24 09:54:38;;;;;;;17.20;3.55;;;;;;;10.09;56.77;96093.56;6268748;22;20076;-53
2022/02/24 09:57:03;;;;;;;6.80;4.75;;;;;;;10.45;56.01;96109.84;6269231;22;20476;-54
2022/02/24 09:59:30;;;;;;;5.88;4.07;;;;;;;10.57;57.20;96122.00;6268872;22;20006;-53
2022/02/24 10:01:56;;;;;;;5.30;3.00;;;;;;;10.41;55.19;96121.63;6268902;22;20008;-53
2022/02/24 10:04:23;;;;;;;10.10;3.33;;;;;;;10.53;55.87;96125.84;6268915;22;20060;-55
2022/02/24 10:06:48;;;;;;;4.97;3.33;;;;;;;11.34;55.06;96124.16;6269361;22;20431;-55
2022/02/24 10:09:40;;;;;;;6.72;3.53;;;;;;;11.35;54.29;96131.09;6268798;22;20003;-55
2022/02/24 10:12:10;;;;;;;8.80;3.60;;;;;;;10.97;54.76;96111.63;6268847;22;20015;-53
2022/02/24 10:14:38;;;;;;;6.85;3.72;;;;;;;11.00;56.86;96121.88;6269527;22;20014;-55
2022/02/24 10:17:05;;;;;;;7.93;4.03;;;;;;;10.93;56.37;96131.25;6270515;22;20011;-55
2022/02/24 10:19:37;;;;;;;7.75;3.75;;;;;;;10.84;55.75;96133.75;6269840;22;20437;-53
2022/02/24 10:22:13;;;;;;;8.18;4.10;;;;;;;10.73;55.63;96125.94;6269952;22;20016;-53
2022/02/24 10:24:41;;;;;;;11.75;4.43;;;;;;;10.96;55.26;96126.56;6269877;22;20015;-54
2022/02/24 10:27:33;;;;;;;9.93;3.63;;;;;;;11.09;52.93;96123.69;6270032;22;20011;-52
2022/02/24 10:30:01;;;;;;;7.90;3.50;;;;;;;11.29;53.46;96123.75;6270338;22;20079;-52
2022/02/24 10:32:39;;;;;;;10.77;3.80;;;;;;;11.26;53.96;96119.56;6270283;22;20076;-52
2022/02/24 10:35:22;;;;;;;8.15;3.47;;;;;;;11.41;53.40;96122.66;6269946;22;20011;-54
2022/02/24 10:37:55;;;;;;;13.18;4.68;;;;;;;11.45;52.86;96117.94;6269921;22;20034;-54
2022/02/24 10:40:21;;;;;;;13.55;5.88;;;;;;;11.30;53.25;96122.78;6270545;22;20034;-54
2022/02/24 10:42:46;;;;;;;10.30;4.03;;;;;;;11.61;52.95;96123.50;6269919;22;20004;-53
2022/02/24 10:45:16;;;;;;;11.68;4.88;;;;;;;11.56;52.60;96112.56;6270010;22;20004;-55
2022/02/24 10:48:03;;;;;;;10.40;4.65;;;;;;;11.63;53.85;96115.47;6269999;22;20019;-53
2022/02/24 10:50:45;;;;;;;12.38;6.18;;;;;;;12.05;51.92;96122.28;6269860;22;20052;-50
2022/02/24 10:53:11;;;;;;;10.25;4.13;;;;;;;12.41;51.34;96114.59;6269892;22;20008;-55
2022/02/24 10:55:53;;;;;;;8.77;4.65;;;;;;;12.30;50.49;96110.31;6270337;22;20004;-54
2022/02/24 10:58:18;;;;;;;7.35;4.10;;;;;;;12.12;51.64;96119.91;6269829;22;19999;-54
2022/02/24 11:00:43;;;;;;;8.02;3.38;;;;;;;12.18;52.07;96117.56;6270029;22;20000;-53
2022/02/24 11:03:09;;;;;;;10.32;4.25;;;;;;;12.00;52.18;96112.13;6269936;22;20000;-55
2022/02/24 11:05:37;;;;;;;9.85;4.38;;;;;;;11.86;52.35;96120.47;6270524;22;20004;-54
2022/02/24 11:08:04;;;;;;;9.18;4.93;;;;;;;11.71;52.95;96120.88;6270177;22;20008;-54
2022/02/24 11:10:30;;;;;;;8.48;3.80;;;;;;;11.86;51.66;96118.66;6269676;22;20004;-55
2022/02/24 11:12:56;;;;;;;9.98;4.47;;;;;;;11.59;51.62;96127.25;6270036;22;20381;-51
2022/02/24 11:15:23;;;;;;;10.02;4.07;;;;;;;11.68;52.04;96129.06;6269743;22;20071;-52
2022/02/24 11:17:50;;;;;;;8.52;4.60;;;;;;;11.71;51.23;96120.88;6269762;22;20012;-55
2022/02/24 11:20:16;;;;;;;10.77;4.70;;;;;;;12.15;51.61;96128.38;6242594;22;20364;-54
2022/02/24 11:22:41;;;;;;;10.80;4.35;;;;;;;12.30;51.94;96136.72;6269883;22;20011;-55
2022/02/24 11:25:10;;;;;;;7.65;4.00;;;;;;;12.51;50.71;96122.50;6270167;22;20056;-54
2022/02/24 11:27:39;;;;;;;7.68;3.53;;;;;;;12.69;50.85;96125.19;6269627;22;20371;-54
2022/02/24 11:30:10;;;;;;;10.02;3.58;;;;;;;12.58;49.67;96122.72;6269762;22;20439;-56
2022/02/24 11:32:37;;;;;;;16.58;4.82;;;;;;;12.74;49.63;96122.94;6269741;22;20014;-54